Dow, Illinois
Current Conditions -  °F | °C
As of 5:54 PM on Saturday 20 Dec 2014 (Local Time) from KSET Reporting Station
Overcast Overcast  
Wind Chill: 36°   Ceiling: 2900
Heat Index: 39°   Visibility: 8mi
Dew Point: 36°   Wind: 5mph
Humidity: 89%   Direction: 100°E
Pressure: 30.24"   Gusts: NA
Location:  39.01°N, 90.34°W
Report Text: KSET 202354Z AUTO 10004KT 8SM OVC029 04/02 A3024 RMK AO2 SLP240 T00390022 10050 20039 53004
Loading
Personal Weather Stations






























Interactive Weather Map New forecast layout! Learn more

10-Day Weather Forecast

Advertisements
Track Severe Weather on mobile